createdAt,value
2022-09-21T00:00:53.418Z,70.05
2022-09-21T00:03:21.411Z,67.89
2022-09-21T00:05:49.344Z,68.27
2022-09-21T00:08:17.217Z,67.94
2022-09-21T00:10:50.661Z,68.77
2022-09-21T00:13:19.688Z,67.48
2022-09-21T00:15:47.581Z,67.71
2022-09-21T00:18:15.511Z,67.78
2022-09-21T00:20:43.824Z,67.39
2022-09-21T00:23:11.867Z,68.41
2022-09-21T00:25:39.828Z,68.79
2022-09-21T00:28:09.091Z,69.13
2022-09-21T00:30:38.116Z,67.59
2022-09-21T00:33:06.292Z,69.27
2022-09-21T00:35:34.609Z,69.28
2022-09-21T00:38:03.032Z,68.44
2022-09-21T00:40:31.305Z,68.02
2022-09-21T00:43:14.730Z,68.51
2022-09-21T00:45:43.563Z,67.89
2022-09-21T00:48:11.746Z,68.06
2022-09-21T00:50:46.535Z,67.26
2022-09-21T00:53:16.060Z,68.23
2022-09-21T00:55:49.215Z,69.23
2022-09-21T00:58:26.075Z,69.21
2022-09-21T01:00:54.201Z,69.18
2022-09-21T01:03:22.171Z,68.77
2022-09-21T01:05:50.536Z,68.19
2022-09-21T01:08:20.895Z,68.14
2022-09-21T01:11:09.168Z,68.55
2022-09-21T01:13:49.996Z,67.24
2022-09-21T01:16:25.485Z,67.90
2022-09-21T01:19:00.821Z,68.29
2022-09-21T01:21:32.642Z,68.61
2022-09-21T01:24:23.801Z,67.61
2022-09-21T01:27:10.597Z,68.51
2022-09-21T01:29:44.803Z,67.88
2022-09-21T01:32:16.380Z,67.61
2022-09-21T01:34:50.086Z,68.56
2022-09-21T01:37:22.970Z,68.52
2022-09-21T01:39:55.980Z,68.37
2022-09-21T01:42:27.488Z,68.41
2022-09-21T01:44:59.914Z,69.24
2022-09-21T01:47:31.467Z,68.45
2022-09-21T01:50:02.851Z,70.33
2022-09-21T01:52:37.211Z,68.85
2022-09-21T01:55:10.304Z,70.47
2022-09-21T01:57:44.294Z,70.28
2022-09-21T02:00:15.944Z,69.47
2022-09-21T02:02:50.310Z,69.65
2022-09-21T02:05:20.745Z,69.65
2022-09-21T02:07:51.191Z,68.08
2022-09-21T02:10:24.457Z,69.00
2022-09-21T02:12:56.807Z,68.40
2022-09-21T02:15:32.575Z,69.00
2022-09-21T02:18:07.443Z,69.07
2022-09-21T02:20:43.986Z,67.74
2022-09-21T02:23:16.079Z,67.54
2022-09-21T02:25:51.167Z,67.76
2022-09-21T02:28:31.614Z,68.22
2022-09-21T02:31:10.940Z,68.35
2022-09-21T02:33:47.170Z,68.62
2022-09-21T02:36:23.515Z,69.09
2022-09-21T02:38:55.786Z,68.29
2022-09-21T02:41:29.810Z,68.63
2022-09-21T02:44:02.902Z,69.38
2022-09-21T02:46:36.414Z,67.87
2022-09-21T02:49:07.231Z,68.01
2022-09-21T02:51:39.922Z,68.58
2022-09-21T02:54:12.135Z,68.35
2022-09-21T02:56:42.388Z,67.93
2022-09-21T02:59:11.522Z,68.66
2022-09-21T03:01:42.148Z,69.24
2022-09-21T03:04:10.283Z,68.35
2022-09-21T03:06:38.287Z,69.24
2022-09-21T03:09:06.244Z,69.99
2022-09-21T03:11:34.837Z,69.99
2022-09-21T03:14:05.411Z,69.96
2022-09-21T03:16:33.398Z,69.72
2022-09-21T03:19:02.663Z,69.58
2022-09-21T03:21:30.723Z,70.38
2022-09-21T03:23:58.572Z,69.95
2022-09-21T03:26:26.621Z,68.57
2022-09-21T03:28:54.693Z,69.71
2022-09-21T03:31:23.385Z,70.46
2022-09-21T03:33:51.380Z,69.93
2022-09-21T03:36:20.886Z,69.14
2022-09-21T03:38:48.775Z,68.87
2022-09-21T03:41:16.802Z,69.61
2022-09-21T03:43:44.643Z,70.94
2022-09-21T03:46:12.577Z,69.27
2022-09-21T03:48:42.411Z,69.70
2022-09-21T03:51:10.334Z,70.98
2022-09-21T03:53:39.593Z,69.35
2022-09-21T03:56:07.455Z,70.96
2022-09-21T03:58:35.375Z,68.81
2022-09-21T04:01:04.261Z,69.39
2022-09-21T04:03:32.198Z,69.65
2022-09-21T04:06:00.156Z,68.99
2022-09-21T04:08:28.142Z,67.96
2022-09-21T04:10:57.384Z,70.58
2022-09-21T04:13:25.545Z,71.31
2022-09-21T04:15:53.661Z,69.96
2022-09-21T04:18:21.771Z,68.67
2022-09-21T04:20:49.667Z,69.78
2022-09-21T04:23:17.646Z,70.09
2022-09-21T04:25:46.575Z,70.11
2022-09-21T04:28:15.847Z,70.76
2022-09-21T04:30:43.792Z,69.31
2022-09-21T04:33:11.751Z,68.39
2022-09-21T04:35:39.629Z,69.01
2022-09-21T04:38:07.539Z,69.77
2022-09-21T04:40:35.477Z,71.08
2022-09-21T04:43:03.385Z,69.59
2022-09-21T04:45:32.620Z,69.33
2022-09-21T04:48:00.513Z,69.62
2022-09-21T04:50:28.401Z,69.18
2022-09-21T04:53:04.478Z,70.43
2022-09-21T04:55:32.668Z,71.66
2022-09-21T04:58:00.613Z,70.68
2022-09-21T05:00:28.544Z,71.03
2022-09-21T05:02:58.258Z,70.29
2022-09-21T05:05:26.324Z,70.84
2022-09-21T05:07:54.241Z,70.05
2022-09-21T05:10:21.210Z,69.40
2022-09-21T05:12:49.183Z,69.54
2022-09-21T05:15:18.468Z,70.17
2022-09-21T05:17:46.685Z,69.28
2022-09-21T05:20:16.243Z,69.63
2022-09-21T05:22:44.185Z,70.09
2022-09-21T05:25:12.060Z,69.70
2022-09-21T05:27:39.973Z,68.94
2022-09-21T05:30:09.367Z,69.00
2022-09-21T05:32:45.990Z,70.68
2022-09-21T05:35:25.950Z,69.73
2022-09-21T05:37:58.662Z,71.81
2022-09-21T05:40:27.431Z,70.78
2022-09-21T05:42:56.194Z,70.29
2022-09-21T05:45:24.871Z,71.14
2022-09-21T05:47:59.815Z,71.96
2022-09-21T05:50:53.353Z,69.55
2022-09-21T05:53:36.981Z,61.56
2022-09-21T05:56:10.718Z,59.37
2022-09-21T05:58:47.932Z,59.95
2022-09-21T06:01:28.935Z,57.33
2022-09-21T06:03:57.791Z,63.43
2022-09-21T06:06:27.049Z,66.77
2022-09-21T06:08:55.014Z,67.89
2022-09-21T06:11:23.028Z,67.91
2022-09-21T06:13:50.910Z,68.58
2022-09-21T06:16:19.050Z,68.52
2022-09-21T06:18:46.956Z,67.01
2022-09-21T06:21:14.902Z,67.88
2022-09-21T06:23:44.134Z,68.98
2022-09-21T06:26:12.094Z,67.78
2022-09-21T06:28:39.966Z,61.17
2022-09-21T06:31:07.933Z,60.51
2022-09-21T06:33:37.747Z,59.21
2022-09-21T06:36:06.005Z,62.55
2022-09-21T06:38:35.287Z,64.61
2022-09-21T06:41:05.951Z,66.12
2022-09-21T06:43:33.933Z,66.28
2022-09-21T06:46:03.593Z,63.19
2022-09-21T06:48:33.796Z,63.80
2022-09-21T06:51:03.959Z,65.15
2022-09-21T06:53:33.264Z,65.97
2022-09-21T06:56:07.592Z,65.70
2022-09-21T06:58:37.519Z,65.61
2022-09-21T07:01:08.496Z,66.54
2022-09-21T07:03:36.837Z,64.23
2022-09-21T07:06:05.845Z,60.89
2022-09-21T07:11:23.994Z,63.05
2022-09-21T07:13:52.763Z,64.44
2022-09-21T07:16:21.508Z,63.44
2022-09-21T07:18:50.098Z,61.20
2022-09-21T07:21:18.246Z,52.02
2022-09-21T07:23:46.183Z,45.22
2022-09-21T07:26:15.361Z,51.17
2022-09-21T07:28:44.811Z,49.99
2022-09-21T07:31:15.093Z,42.53
2022-09-21T07:33:43.943Z,36.71
2022-09-21T07:36:13.029Z,34.57
2022-09-21T07:38:43.187Z,35.17
2022-09-21T07:41:13.269Z,44.78
2022-09-21T07:43:41.815Z,50.64
2022-09-21T07:46:12.571Z,52.87
2022-09-21T07:48:40.712Z,48.71
2022-09-21T07:51:11.066Z,51.61
2022-09-21T07:53:41.268Z,54.33
2022-09-21T07:56:11.224Z,57.35
2022-09-21T07:58:57.634Z,57.33
2022-09-21T08:01:27.959Z,57.06
2022-09-21T08:03:57.418Z,56.28
2022-09-21T08:06:27.551Z,56.28
2022-09-21T08:08:58.018Z,55.96
2022-09-21T08:11:28.502Z,55.84
2022-09-21T08:13:59.118Z,54.43
2022-09-21T08:16:29.858Z,54.85
2022-09-21T08:18:58.298Z,51.78
2022-09-21T08:21:26.440Z,44.50
2022-09-21T08:23:54.852Z,39.27
2022-09-21T08:26:23.858Z,36.91
2022-09-21T08:28:54.913Z,38.69
2022-09-21T08:31:24.197Z,43.89
2022-09-21T08:33:55.790Z,43.10
2022-09-21T08:36:23.764Z,48.14
2022-09-21T08:38:51.873Z,49.11
2022-09-21T08:41:22.610Z,48.43
2022-09-21T08:43:54.726Z,44.81
2022-09-21T08:46:28.037Z,34.20
2022-09-21T08:48:59.425Z,38.43
2022-09-21T08:51:31.440Z,40.64
2022-09-21T08:54:04.814Z,43.22
2022-09-21T08:56:47.432Z,44.15
2022-09-21T08:59:20.853Z,35.25
2022-09-21T09:01:59.549Z,39.85
2022-09-21T09:04:46.737Z,40.73
2022-09-21T09:07:42.558Z,34.09
2022-09-21T09:10:27.195Z,33.70
2022-09-21T09:13:04.504Z,36.47
2022-09-21T09:15:54.501Z,39.09
2022-09-21T09:18:30.173Z,39.80
2022-09-21T09:21:04.506Z,41.11
2022-09-21T09:23:35.824Z,44.13
2022-09-21T09:26:08.947Z,43.84
2022-09-21T09:28:39.565Z,43.22
2022-09-21T09:31:13.945Z,37.08
2022-09-21T09:33:52.934Z,30.65
2022-09-21T09:36:46.481Z,28.34
2022-09-21T09:39:14.521Z,26.06
2022-09-21T09:41:59.765Z,25.06
2022-09-21T09:44:35.478Z,26.25
2022-09-21T09:47:12.214Z,24.35
2022-09-21T09:49:54.072Z,23.41
2022-09-21T09:52:23.723Z,27.17
2022-09-21T09:54:51.584Z,27.62
2022-09-21T09:57:28.449Z,23.86
2022-09-21T10:00:01.166Z,22.41
2022-09-21T10:02:29.941Z,27.20
2022-09-21T10:05:01.495Z,32.12
2022-09-21T10:07:39.155Z,31.20
2022-09-21T10:10:32.211Z,30.73
2022-09-21T10:13:07.288Z,34.56
2022-09-21T10:15:39.963Z,34.72
2022-09-21T10:18:15.670Z,37.10
2022-09-21T10:20:56.018Z,37.25
2022-09-21T10:23:26.457Z,37.19
2022-09-21T10:25:57.624Z,37.76
2022-09-21T10:28:26.177Z,36.38
2022-09-21T10:31:22.430Z,36.01
2022-09-21T10:33:53.730Z,36.15
2022-09-21T10:36:31.417Z,34.22
2022-09-21T10:39:18.587Z,35.91
2022-09-21T10:41:50.242Z,31.97
2022-09-21T10:44:20.189Z,33.97
2022-09-21T10:46:49.775Z,34.33
2022-09-21T10:49:25.104Z,34.72
2022-09-21T10:51:56.843Z,34.15
2022-09-21T10:54:29.101Z,33.69
2022-09-21T10:57:02.308Z,32.42
2022-09-21T10:59:32.651Z,28.24
2022-09-21T11:02:02.194Z,29.27
2022-09-21T11:04:37.438Z,28.01
2022-09-21T11:07:12.810Z,28.57
2022-09-21T11:09:47.972Z,28.93
2022-09-21T11:12:33.310Z,29.22
2022-09-21T11:15:06.565Z,30.95
2022-09-21T11:17:40.123Z,32.76
2022-09-21T11:20:20.737Z,30.90
2022-09-21T11:22:57.790Z,31.08
2022-09-21T11:25:38.031Z,31.91
2022-09-21T11:28:14.640Z,30.77
2022-09-21T11:31:23.283Z,31.08
2022-09-21T11:34:06.105Z,31.27
2022-09-21T11:36:44.045Z,30.83
2022-09-21T11:39:19.555Z,30.07
2022-09-21T11:42:04.738Z,29.71
2022-09-21T11:44:49.230Z,28.35
2022-09-21T11:47:31.452Z,28.72
2022-09-21T11:50:33.383Z,24.42
2022-09-21T11:53:17.349Z,25.85
2022-09-21T11:56:07.582Z,27.80
2022-09-21T11:58:43.315Z,27.84
2022-09-21T12:01:27.302Z,28.34
2022-09-21T12:04:13.160Z,27.41
2022-09-21T12:06:57.117Z,28.28
2022-09-21T12:09:55.875Z,26.25
2022-09-21T12:12:33.380Z,25.82
2022-09-21T12:15:11.397Z,26.23
2022-09-21T12:17:50.582Z,29.12
2022-09-21T12:20:25.744Z,29.46
2022-09-21T12:23:01.025Z,29.74
2022-09-21T12:25:35.973Z,29.59
2022-09-21T12:28:10.854Z,29.70
2022-09-21T12:30:43.506Z,30.93
2022-09-21T12:33:18.856Z,30.95
2022-09-21T12:38:28.101Z,28.97
2022-09-21T12:41:00.820Z,28.66
2022-09-21T12:43:36.662Z,30.95
2022-09-21T12:46:12.279Z,30.24
2022-09-21T12:48:42.217Z,29.74
2022-09-21T12:51:17.428Z,30.58
2022-09-21T12:53:50.904Z,29.80
2022-09-21T12:56:31.232Z,30.29
2022-09-21T12:59:11.947Z,30.87
2022-09-21T13:01:45.630Z,30.23
2022-09-21T13:04:41.755Z,31.12
2022-09-21T13:07:38.175Z,31.06
2022-09-21T13:10:16.436Z,30.38
2022-09-21T13:12:47.116Z,31.55
2022-09-21T13:15:21.878Z,29.83
2022-09-21T13:17:59.944Z,29.98
2022-09-21T13:20:28.799Z,30.29
2022-09-21T13:23:01.289Z,31.15
2022-09-21T13:25:32.502Z,30.84
2022-09-21T13:28:09.183Z,31.47
2022-09-21T13:30:40.488Z,30.95
2022-09-21T13:33:33.022Z,32.01
2022-09-21T13:36:30.074Z,32.19
2022-09-21T13:39:13.982Z,31.20
2022-09-21T13:42:04.261Z,31.23
2022-09-21T13:44:43.240Z,31.53
2022-09-21T13:47:14.510Z,32.00
2022-09-21T13:49:55.886Z,31.81
2022-09-21T13:52:41.525Z,31.55
2022-09-21T13:55:25.391Z,31.30
2022-09-21T13:57:56.584Z,30.92
2022-09-21T14:00:38.015Z,30.46
2022-09-21T14:03:19.097Z,31.48
2022-09-21T14:05:52.405Z,30.62
2022-09-21T14:08:31.335Z,31.43
2022-09-21T14:13:34.850Z,31.45
2022-09-21T14:16:49.746Z,31.18
2022-09-21T14:20:08.158Z,30.45
2022-09-21T14:22:42.494Z,29.20
2022-09-21T14:25:51.136Z,26.96
2022-09-21T14:28:35.693Z,26.00
2022-09-21T14:31:09.016Z,24.88
2022-09-21T14:33:45.952Z,24.65
2022-09-21T14:36:19.585Z,26.50
2022-09-21T14:38:55.044Z,28.27
2022-09-21T14:41:25.500Z,29.40
2022-09-21T14:43:55.569Z,30.29
2022-09-21T14:46:51.480Z,30.91
2022-09-21T14:49:34.812Z,31.39
2022-09-21T14:52:18.255Z,30.15
2022-09-21T14:55:01.479Z,29.92
2022-09-21T14:57:37.613Z,28.98
2022-09-21T15:00:21.143Z,29.06
2022-09-21T15:02:56.386Z,29.36
2022-09-21T15:05:32.094Z,29.30
2022-09-21T15:08:35.251Z,29.54
2022-09-21T15:11:12.066Z,29.60
2022-09-21T15:13:48.730Z,29.24
2022-09-21T15:16:35.895Z,29.51
2022-09-21T15:19:14.354Z,28.83
2022-09-21T15:21:44.490Z,29.20
2022-09-21T15:24:22.194Z,29.41
2022-09-21T15:26:52.617Z,29.77
2022-09-21T15:29:25.785Z,29.28
2022-09-21T15:31:54.753Z,29.48
2022-09-21T15:34:24.081Z,29.13
2022-09-21T15:36:52.847Z,29.49
2022-09-21T15:39:26.499Z,28.51
2022-09-21T15:42:11.777Z,29.23
2022-09-21T15:44:40.855Z,29.83
2022-09-21T15:47:12.480Z,29.38
2022-09-21T15:49:41.352Z,29.60
2022-09-21T15:52:14.664Z,29.60
2022-09-21T15:54:46.059Z,28.56
2022-09-21T15:57:39.624Z,29.99
2022-09-21T16:00:19.888Z,29.95
2022-09-21T16:02:57.095Z,30.60
2022-09-21T16:05:26.058Z,30.58
2022-09-21T16:08:06.860Z,30.26
2022-09-21T16:10:41.466Z,30.66
2022-09-21T16:13:37.945Z,32.33
2022-09-21T16:16:07.820Z,32.66
2022-09-21T16:18:46.388Z,31.92
2022-09-21T16:21:27.636Z,33.02
2022-09-21T16:23:57.714Z,33.66
2022-09-21T16:26:35.893Z,33.85
2022-09-21T16:29:25.483Z,34.02
2022-09-21T16:32:28.738Z,34.34
2022-09-21T16:35:25.249Z,34.48
2022-09-21T16:37:54.022Z,34.65
2022-09-21T16:40:21.986Z,35.02
2022-09-21T16:42:50.187Z,34.62
2022-09-21T16:45:24.703Z,35.98
2022-09-21T16:47:54.313Z,35.86
2022-09-21T16:50:22.247Z,35.70
2022-09-21T16:52:51.484Z,36.99
2022-09-21T16:55:19.493Z,36.18
2022-09-21T16:57:48.870Z,36.62
2022-09-21T17:00:22.184Z,37.02
2022-09-21T17:02:51.903Z,36.94
2022-09-21T17:05:21.522Z,37.10
2022-09-21T17:07:53.017Z,37.55
2022-09-21T17:10:24.201Z,37.86
2022-09-21T17:12:53.692Z,37.72
2022-09-21T17:15:22.814Z,38.01
2022-09-21T17:17:50.898Z,38.33
2022-09-21T17:20:24.411Z,38.47
2022-09-21T17:22:52.436Z,39.08
2022-09-21T17:25:20.361Z,39.66
2022-09-21T17:27:48.285Z,38.81
2022-09-21T17:30:17.258Z,39.50
2022-09-21T17:32:49.165Z,40.76
2022-09-21T17:35:18.853Z,40.94
2022-09-21T17:37:48.248Z,40.76
2022-09-21T17:40:17.024Z,41.92
2022-09-21T17:42:46.463Z,42.64
2022-09-21T17:45:21.747Z,43.03
2022-09-21T17:47:50.891Z,43.69
2022-09-21T17:50:24.080Z,43.92
2022-09-21T17:53:12.241Z,44.23
2022-09-21T17:55:44.400Z,44.82
2022-09-21T17:58:27.868Z,44.41
2022-09-21T18:01:01.850Z,45.11
2022-09-21T18:03:31.538Z,45.45
2022-09-21T18:06:00.755Z,45.33
2022-09-21T18:08:33.369Z,46.24
2022-09-21T18:11:12.619Z,46.29
2022-09-21T18:13:52.255Z,46.52
2022-09-21T18:16:28.076Z,47.38
2022-09-21T18:19:05.821Z,50.83
2022-09-21T18:21:36.391Z,52.08
2022-09-21T18:24:26.360Z,53.61
2022-09-21T18:26:57.925Z,54.30
2022-09-21T18:29:45.974Z,54.96
2022-09-21T18:32:44.393Z,54.80
2022-09-21T18:35:22.485Z,55.68
2022-09-21T18:38:02.822Z,55.62
2022-09-21T18:40:39.214Z,56.52
2022-09-21T18:43:22.649Z,56.41
2022-09-21T18:46:01.769Z,57.32
2022-09-21T18:48:39.635Z,57.09
2022-09-21T18:51:16.166Z,57.15
2022-09-21T18:53:48.315Z,57.77
2022-09-21T18:56:18.259Z,57.88
2022-09-21T18:58:47.085Z,58.16
2022-09-21T19:01:17.041Z,58.35
2022-09-21T19:03:46.036Z,58.91
2022-09-21T19:06:30.466Z,59.11
2022-09-21T19:09:07.850Z,59.46
2022-09-21T19:11:44.290Z,59.79
2022-09-21T19:14:21.577Z,60.06
2022-09-21T19:17:02.934Z,60.03
2022-09-21T19:19:39.904Z,60.35
2022-09-21T19:22:15.564Z,60.33
2022-09-21T19:24:56.086Z,60.36
2022-09-21T19:27:36.574Z,60.73
2022-09-21T19:30:08.523Z,60.94
2022-09-21T19:32:40.886Z,61.61
2022-09-21T19:35:20.768Z,61.88
2022-09-21T19:37:49.884Z,62.36
2022-09-21T19:40:20.066Z,62.26
2022-09-21T19:43:18.280Z,62.93
2022-09-21T19:46:04.408Z,62.86
2022-09-21T19:48:42.405Z,63.00
2022-09-21T19:51:18.648Z,63.16
2022-09-21T19:54:09.429Z,63.36
2022-09-21T19:56:58.981Z,63.81
2022-09-21T19:59:44.553Z,64.07
2022-09-21T20:02:15.646Z,64.95
2022-09-21T20:04:52.349Z,65.32
2022-09-21T20:07:42.595Z,65.58
2022-09-21T20:10:26.755Z,66.34
2022-09-21T20:13:06.770Z,65.48
2022-09-21T20:15:42.014Z,66.40
2022-09-21T20:18:19.629Z,66.35
2022-09-21T20:20:47.924Z,66.16
2022-09-21T20:23:16.638Z,66.65
2022-09-21T20:25:52.335Z,67.14
2022-09-21T20:28:21.772Z,67.20
2022-09-21T20:30:51.298Z,67.87
2022-09-21T20:33:23.324Z,68.10
2022-09-21T20:35:55.832Z,67.54
2022-09-21T20:38:24.500Z,68.45
2022-09-21T20:40:54.037Z,68.38
2022-09-21T20:43:23.059Z,68.80
2022-09-21T20:45:53.720Z,69.11
2022-09-21T20:48:22.041Z,69.15
2022-09-21T20:50:52.308Z,68.54
2022-09-21T20:53:20.667Z,68.40
2022-09-21T20:55:55.047Z,68.38
2022-09-21T20:58:23.960Z,69.10
2022-09-21T21:00:58.590Z,69.96
2022-09-21T21:03:27.061Z,68.77
2022-09-21T21:05:55.217Z,70.07
2022-09-21T21:08:23.993Z,69.73
2022-09-21T21:10:52.268Z,70.39
2022-09-21T21:13:20.328Z,69.61
2022-09-21T21:15:55.135Z,70.80
2022-09-21T21:18:26.608Z,71.17
2022-09-21T21:20:54.821Z,71.19
2022-09-21T21:23:23.092Z,71.07
2022-09-21T21:25:51.054Z,69.50
2022-09-21T21:28:19.426Z,69.49
2022-09-21T21:30:53.626Z,70.00
2022-09-21T21:33:23.232Z,71.27
2022-09-21T21:35:52.169Z,72.20
2022-09-21T21:38:20.539Z,72.22
2022-09-21T21:40:48.838Z,71.35
2022-09-21T21:43:17.444Z,71.51
2022-09-21T21:45:53.143Z,71.26
2022-09-21T21:48:21.473Z,71.64
2022-09-21T21:50:50.704Z,71.59
2022-09-21T21:53:18.925Z,71.81
2022-09-21T21:55:46.839Z,71.95
2022-09-21T21:58:14.961Z,72.34
2022-09-21T22:00:43.123Z,72.04
2022-09-21T22:03:11.377Z,72.61
2022-09-21T22:05:40.189Z,71.79
2022-09-21T22:08:09.553Z,72.86
2022-09-21T22:10:37.565Z,72.58
2022-09-21T22:13:07.053Z,72.76
2022-09-21T22:15:35.230Z,71.89
2022-09-21T22:18:03.378Z,72.17
2022-09-21T22:20:32.116Z,73.21
2022-09-21T22:23:00.393Z,73.29
2022-09-21T22:25:30.303Z,73.70
2022-09-21T22:27:58.491Z,72.90
2022-09-21T22:30:26.512Z,72.58
2022-09-21T22:32:55.297Z,72.76
2022-09-21T22:35:23.555Z,73.46
2022-09-21T22:37:52.764Z,73.59
2022-09-21T22:40:21.399Z,74.05
2022-09-21T22:42:50.717Z,73.24
2022-09-21T22:45:18.770Z,73.49
2022-09-21T22:47:47.346Z,73.37
2022-09-21T22:50:15.631Z,73.90
2022-09-21T22:52:43.653Z,72.71
2022-09-21T22:55:11.736Z,74.28
2022-09-21T22:57:39.799Z,73.99
2022-09-21T23:00:11.227Z,73.95
2022-09-21T23:02:39.250Z,73.49
2022-09-21T23:05:08.500Z,73.70
2022-09-21T23:07:36.902Z,74.32
2022-09-21T23:10:05.500Z,73.69
2022-09-21T23:12:33.617Z,74.57
2022-09-21T23:15:01.595Z,74.23
2022-09-21T23:17:31.300Z,72.96
2022-09-21T23:20:02.446Z,72.91
2022-09-21T23:22:30.417Z,73.62
2022-09-21T23:24:58.440Z,73.44
2022-09-21T23:27:26.511Z,73.07
2022-09-21T23:29:54.703Z,73.05
2022-09-21T23:32:22.706Z,72.66
2022-09-21T23:34:52.235Z,73.56
2022-09-21T23:37:20.296Z,73.25
2022-09-21T23:39:48.547Z,73.41
2022-09-21T23:42:16.425Z,74.05
2022-09-21T23:44:44.313Z,73.15
2022-09-21T23:47:12.311Z,72.97
2022-09-21T23:49:40.643Z,73.08
2022-09-21T23:52:10.039Z,73.73
2022-09-21T23:54:37.913Z,72.79
2022-09-21T23:57:05.865Z,72.24
2022-09-21T23:59:33.777Z,73.17
